logo
Search for airport 
image banner adimage banner adimage banner ad
image banner ad

OPLPR - LALPIR

Located in , Pakistan

ICAO - , IATA -

Data provided by Airmate  

General information

Coordinates: N30°11'17" E70°59'10"
Elevation is 400 feet MSL.
Magnetic variation is 2° East
View others Airports in Punjab

Operational data

Special qualification required
Current time UTC:
Current local time:
Weather at : OPMT - Multan Int'l ( 42 km )
METAR: OPMT 130530Z 36010KT 4000 TS FEW030CB SCT040 OVC100 19/17 Q1012 TEMPO 36025KT 1500 TSRA FEW030CB
TAF: TAF OPMT 130500Z 1306/1412 05010KT 4000 FU SCT040 SCT100 TX31/1310Z TN18/1401Z PROB30 TEMPO 1314/1318 36020KT 2500 TSRA FEW030CB SCT040 BKN100 TEMPO 1320/1324 36020KT 2000 TSRA FEW030CB //END PART 01//
View NOTAMs / SUP AIP / TFR affecting this airport [VIEW]
Communications frequencies: [VIEW]

Runways:

RWY identifierQFULength (ft)Width (ft)SurfaceLDA (ft)
36360°495072ASPH
18180°495072ASPH

Airport contact information

Address: Pakistan

Satellite view of OPLPR